Time;durP1;ratioP1;P1;durP2;ratioP2;P2;SDS_P1;SDS_P2;PMS_P1;PMS_P2;Temp;Humidity;BMP_temperature;BMP_pressure;BME280_temperature;BME280_humidity;BME280_pressure;Samples;Min_cycle;Max_cycle;Signal;HPM_P1;HPM_P2
2023/03/08 00:01:39;;;;;;;12.27;5.95;;;3.90;99.90;;;;;;5012811;28;20121;-72
2023/03/08 00:04:05;;;;;;;11.70;4.80;;;4.00;99.90;;;;;;5012575;28;20045;-72
2023/03/08 00:06:31;;;;;;;7.20;4.60;;;4.00;99.90;;;;;;5012467;28;20066;-71
2023/03/08 00:08:58;;;;;;;7.45;4.53;;;4.10;99.90;;;;;;5012742;28;20022;-72
2023/03/08 00:11:24;;;;;;;6.73;4.57;;;4.10;99.90;;;;;;5012903;28;20017;-72
2023/03/08 00:13:50;;;;;;;8.75;4.70;;;4.00;99.90;;;;;;5012700;28;20260;-73
2023/03/08 00:16:16;;;;;;;8.40;5.15;;;4.10;99.90;;;;;;5011382;28;20026;-72
2023/03/08 00:18:42;;;;;;;10.07;4.93;;;4.00;99.90;;;;;;5012587;28;20030;-73
2023/03/08 00:21:10;;;;;;;7.60;4.90;;;4.10;99.90;;;;;;5012201;28;20080;-72
2023/03/08 00:23:37;;;;;;;10.05;4.75;;;4.10;99.90;;;;;;5012750;28;20022;-72
2023/03/08 00:26:03;;;;;;;8.05;4.30;;;4.00;99.90;;;;;;5011248;28;20492;-73
2023/03/08 00:28:30;;;;;;;10.02;4.47;;;4.00;99.90;;;;;;5012103;28;20034;-72
2023/03/08 00:31:06;;;;;;;12.13;4.47;;;4.00;99.90;;;;;;5011002;28;20088;-72
2023/03/08 00:33:32;;;;;;;9.88;4.32;;;4.10;99.90;;;;;;5010963;28;20042;-72
2023/03/08 00:36:04;;;;;;;10.48;4.88;;;4.00;99.90;;;;;;5010912;28;20022;-72
2023/03/08 00:38:32;;;;;;;7.95;4.80;;;4.20;99.90;;;;;;5012650;28;20036;-73
2023/03/08 00:40:58;;;;;;;7.65;4.78;;;4.20;99.90;;;;;;5012136;28;20026;-72
2023/03/08 00:43:25;;;;;;;11.73;4.82;;;4.20;99.90;;;;;;5012016;28;20396;-73
2023/03/08 00:45:50;;;;;;;8.38;4.28;;;4.20;99.90;;;;;;5011901;28;20034;-72
2023/03/08 00:48:16;;;;;;;9.52;4.28;;;4.30;99.90;;;;;;5011056;28;20449;-73
2023/03/08 00:50:42;;;;;;;6.90;4.25;;;4.30;99.90;;;;;;5012224;28;20032;-74
2023/03/08 00:53:09;;;;;;;7.50;4.28;;;4.20;99.90;;;;;;5011776;28;20464;-73
2023/03/08 00:55:34;;;;;;;6.85;4.38;;;4.20;99.90;;;;;;5011682;28;20124;-73
2023/03/08 00:58:01;;;;;;;8.98;4.78;;;4.20;99.90;;;;;;5012102;28;20109;-73
2023/03/08 01:00:26;;;;;;;10.48;3.95;;;4.20;99.90;;;;;;5010926;28;20121;-74
2023/03/08 01:02:52;;;;;;;11.52;4.22;;;4.20;99.90;;;;;;5011720;28;20496;-74
2023/03/08 01:05:18;;;;;;;7.82;3.92;;;4.20;99.90;;;;;;5011086;28;20033;-73
2023/03/08 01:07:44;;;;;;;6.57;3.50;;;4.10;99.90;;;;;;5011863;28;20380;-73
2023/03/08 01:10:10;;;;;;;8.75;4.30;;;4.20;99.90;;;;;;5010849;28;20487;-74
2023/03/08 01:12:36;;;;;;;10.07;3.90;;;4.10;99.90;;;;;;5010754;28;20188;-73
2023/03/08 01:15:03;;;;;;;7.63;3.42;;;4.20;99.90;;;;;;5011711;28;20025;-72
2023/03/08 01:17:30;;;;;;;6.80;3.80;;;4.10;99.90;;;;;;5012140;28;20025;-70
2023/03/08 01:19:55;;;;;;;8.38;4.30;;;4.10;99.90;;;;;;5011663;28;20487;-72
2023/03/08 01:22:21;;;;;;;7.60;3.40;;;4.20;99.90;;;;;;5011578;28;20105;-72
2023/03/08 01:24:48;;;;;;;12.05;3.50;;;4.20;99.90;;;;;;5011337;28;20452;-72
2023/03/08 01:27:16;;;;;;;5.72;3.20;;;4.20;99.90;;;;;;5011317;28;20022;-73
2023/03/08 01:29:43;;;;;;;7.00;3.70;;;4.20;99.90;;;;;;5010710;28;20092;-73
2023/03/08 01:32:10;;;;;;;6.63;3.15;;;4.10;99.90;;;;;;5011206;28;20050;-72
2023/03/08 01:34:36;;;;;;;6.53;3.40;;;4.00;99.90;;;;;;5010185;28;20121;-71
2023/03/08 01:37:03;;;;;;;6.10;2.95;;;4.20;99.90;;;;;;5011237;28;20034;-72
2023/03/08 01:39:29;;;;;;;11.48;3.20;;;4.20;99.90;;;;;;5011109;28;20030;-72
2023/03/08 01:41:54;;;;;;;4.75;2.92;;;4.20;99.90;;;;;;5011160;28;20053;-72
2023/03/08 01:44:23;;;;;;;6.72;2.95;;;4.10;99.90;;;;;;5011663;28;20450;-73
2023/03/08 01:46:49;;;;;;;6.28;2.97;;;4.20;99.90;;;;;;5010938;28;20129;-72
2023/03/08 01:49:24;;;;;;;10.95;3.78;;;4.30;99.90;;;;;;5010958;28;20128;-72
2023/03/08 01:52:01;;;;;;;4.97;2.88;;;4.20;99.90;;;;;;5011145;28;20042;-74
2023/03/08 01:54:32;;;;;;;6.75;3.03;;;4.20;99.90;;;;;;5010920;28;20038;-72
2023/03/08 01:57:09;;;;;;;8.30;3.28;;;4.20;99.90;;;;;;5010881;28;20018;-73
2023/03/08 01:59:36;;;;;;;4.82;3.05;;;4.30;99.90;;;;;;5011407;28;20084;-72
2023/03/08 02:02:03;;;;;;;4.85;2.92;;;4.30;99.80;;;;;;5010815;28;20042;-72
2023/03/08 02:04:29;;;;;;;6.75;2.92;;;4.30;99.80;;;;;;5009798;28;20056;-71
2023/03/08 02:06:55;;;;;;;5.20;2.45;;;4.40;99.90;;;;;;5009660;28;20391;-72
2023/03/08 02:09:21;;;;;;;4.80;2.92;;;4.20;99.90;;;;;;5010792;28;20033;-72
2023/03/08 02:11:48;;;;;;;9.13;3.08;;;4.10;99.80;;;;;;5011316;28;20116;-72
2023/03/08 02:14:14;;;;;;;7.55;2.90;;;4.10;99.80;;;;;;5010959;28;20088;-71
2023/03/08 02:16:40;;;;;;;9.32;3.40;;;4.20;99.90;;;;;;5012220;28;20038;-72
2023/03/08 02:19:13;;;;;;;6.32;3.45;;;4.20;99.80;;;;;;5013632;28;20030;-72
2023/03/08 02:21:39;;;;;;;8.77;3.00;;;4.10;99.80;;;;;;5014378;28;20037;-73
2023/03/08 02:24:15;;;;;;;4.97;2.75;;;4.20;99.80;;;;;;5014466;28;20112;-73
2023/03/08 02:26:42;;;;;;;11.57;3.47;;;4.10;99.90;;;;;;5013857;28;20022;-73
2023/03/08 02:29:07;;;;;;;7.45;2.83;;;4.20;99.90;;;;;;5014278;28;20081;-73
2023/03/08 02:31:33;;;;;;;6.53;3.00;;;4.30;99.80;;;;;;5014349;28;20073;-72
2023/03/08 02:33:59;;;;;;;7.70;3.17;;;4.20;99.70;;;;;;5014468;28;20030;-71
2023/03/08 02:36:25;;;;;;;4.97;2.70;;;4.20;99.50;;;;;;5013131;28;20034;-72
2023/03/08 02:38:50;;;;;;;11.50;4.43;;;4.10;99.80;;;;;;5030014;28;20029;-71
2023/03/08 02:41:16;;;;;;;4.82;3.03;;;4.10;99.90;;;;;;5030260;28;20053;-73
2023/03/08 02:43:42;;;;;;;4.85;2.90;;;4.20;99.70;;;;;;5014135;28;20118;-72
2023/03/08 02:46:11;;;;;;;7.13;3.17;;;4.00;99.70;;;;;;5014048;28;20033;-72
2023/03/08 02:48:37;;;;;;;7.65;3.20;;;3.90;99.60;;;;;;5014185;28;20257;-72
2023/03/08 02:51:03;;;;;;;6.68;3.58;;;4.00;99.80;;;;;;5013949;28;20030;-72
2023/03/08 02:53:28;;;;;;;8.75;3.80;;;4.00;99.80;;;;;;5014371;28;20042;-72
2023/03/08 02:55:54;;;;;;;5.68;3.63;;;4.00;99.80;;;;;;5014064;28;20416;-72
2023/03/08 02:58:20;;;;;;;12.13;4.50;;;3.90;99.90;;;;;;5029194;28;20465;-72
2023/03/08 03:00:45;;;;;;;8.90;4.38;;;3.80;99.90;;;;;;5013928;28;20034;-71
2023/03/08 03:03:11;;;;;;;10.93;4.88;;;3.90;99.90;;;;;;5013724;28;20453;-72
2023/03/08 03:05:42;;;;;;;9.65;5.07;;;3.90;99.90;;;;;;5014189;28;20032;-72
2023/03/08 03:08:09;;;;;;;8.80;5.57;;;3.80;99.90;;;;;;5013909;28;20078;-71
2023/03/08 03:10:35;;;;;;;9.27;5.78;;;3.80;99.90;;;;;;5013968;28;20243;-73
2023/03/08 03:13:02;;;;;;;11.00;6.32;;;3.80;99.90;;;;;;5029227;28;20038;-72
2023/03/08 03:15:27;;;;;;;13.43;6.38;;;3.80;99.90;;;;;;5013603;28;20042;-72
2023/03/08 03:17:53;;;;;;;13.10;5.63;;;3.80;99.90;;;;;;5013560;28;20044;-72
2023/03/08 03:20:19;;;;;;;8.05;5.75;;;3.80;99.90;;;;;;5013950;28;20132;-72
2023/03/08 03:22:46;;;;;;;9.48;5.88;;;3.80;99.90;;;;;;5013653;28;20111;-72
2023/03/08 03:25:12;;;;;;;8.10;5.47;;;3.80;99.90;;;;;;5013394;28;20037;-72
2023/03/08 03:27:38;;;;;;;13.20;5.40;;;3.80;99.90;;;;;;5012217;28;20410;-72
2023/03/08 03:30:05;;;;;;;9.82;5.53;;;3.80;99.90;;;;;;5013203;28;20109;-73
2023/03/08 03:32:31;;;;;;;14.98;5.43;;;3.70;99.90;;;;;;5013492;28;20099;-72
2023/03/08 03:34:57;;;;;;;8.82;5.20;;;3.70;99.90;;;;;;5013242;28;20038;-73
2023/03/08 03:37:22;;;;;;;8.90;5.00;;;3.80;99.90;;;;;;5012121;28;20113;-72
2023/03/08 03:39:48;;;;;;;9.75;5.20;;;3.80;99.90;;;;;;5013202;28;20374;-73
2023/03/08 03:42:13;;;;;;;8.88;5.18;;;3.80;99.90;;;;;;5013243;28;20103;-73
2023/03/08 03:44:39;;;;;;;8.27;4.90;;;3.80;99.90;;;;;;5013666;28;20467;-73
2023/03/08 03:47:05;;;;;;;11.02;4.93;;;3.70;99.90;;;;;;5013579;28;20423;-72
2023/03/08 03:49:31;;;;;;;7.57;4.78;;;3.70;99.80;;;;;;5012993;28;20118;-72
2023/03/08 03:51:57;;;;;;;6.78;4.50;;;3.70;99.70;;;;;;5012909;28;20506;-72
2023/03/08 03:54:22;;;;;;;8.23;4.72;;;3.60;99.70;;;;;;5028453;28;20034;-72
2023/03/08 03:56:48;;;;;;;9.40;4.40;;;3.70;99.80;;;;;;5012810;28;20037;-72
2023/03/08 03:59:14;;;;;;;11.30;5.07;;;3.60;99.70;;;;;;5013389;28;20101;-72
2023/03/08 04:01:39;;;;;;;9.40;4.72;;;3.60;99.80;;;;;;5012774;28;20296;-73
2023/03/08 04:04:05;;;;;;;13.13;5.32;;;3.70;99.80;;;;;;5028205;28;20049;-73
2023/03/08 04:06:32;;;;;;;7.15;4.53;;;3.60;99.70;;;;;;5012583;28;20041;-72
2023/03/08 04:09:00;;;;;;;11.65;5.15;;;3.70;99.80;;;;;;5012674;28;20034;-72
2023/03/08 04:11:31;;;;;;;14.25;4.78;;;3.70;99.70;;;;;;5028602;28;20030;-73
2023/03/08 04:13:57;;;;;;;9.15;4.72;;;3.70;99.70;;;;;;5012974;28;20372;-72
2023/03/08 04:16:25;;;;;;;8.00;4.13;;;3.70;99.60;;;;;;5028116;28;20034;-71
2023/03/08 04:18:56;;;;;;;8.88;4.65;;;3.70;99.70;;;;;;5012507;28;20468;-72
2023/03/08 04:21:22;;;;;;;9.05;4.47;;;3.70;99.70;;;;;;5012604;28;20068;-71
2023/03/08 04:23:48;;;;;;;7.63;4.50;;;3.70;99.60;;;;;;5012712;28;20058;-73
2023/03/08 04:26:14;;;;;;;8.35;5.13;;;3.70;99.70;;;;;;5012044;28;20037;-72
2023/03/08 04:28:40;;;;;;;9.98;4.22;;;3.70;99.70;;;;;;5012090;28;20034;-72
2023/03/08 04:31:17;;;;;;;7.30;4.65;;;3.80;99.70;;;;;;5027862;28;20133;-72
2023/03/08 04:33:44;;;;;;;11.73;6.18;;;3.70;99.60;;;;;;5012098;28;20129;-72
2023/03/08 04:36:10;;;;;;;8.68;4.30;;;3.70;99.70;;;;;;5027742;28;20034;-72
2023/03/08 04:38:35;;;;;;;12.18;5.03;;;3.70;99.80;;;;;;5012268;28;20052;-72
2023/03/08 04:41:05;;;;;;;11.05;5.43;;;3.70;99.80;;;;;;5012071;28;20034;-71
2023/03/08 04:43:33;;;;;;;10.90;5.70;;;3.70;99.60;;;;;;5011822;28;20435;-72
2023/03/08 04:46:00;;;;;;;9.23;5.03;;;3.60;99.70;;;;;;5011705;28;20022;-72
2023/03/08 04:48:26;;;;;;;9.77;5.30;;;3.60;99.90;;;;;;5011801;28;20037;-73
2023/03/08 04:50:56;;;;;;;8.50;4.82;;;3.60;99.90;;;;;;5011994;28;20360;-73
2023/03/08 04:53:23;;;;;;;9.25;5.05;;;3.60;99.90;;;;;;5012186;28;20026;-72
2023/03/08 04:55:49;;;;;;;13.38;5.28;;;3.50;99.90;;;;;;5012361;28;20030;-72
2023/03/08 04:58:15;;;;;;;9.65;5.53;;;3.80;99.90;;;;;;5027017;28;20385;-70
2023/03/08 05:00:41;;;;;;;7.95;5.00;;;3.50;99.90;;;;;;5011730;28;20041;-72
2023/03/08 05:03:07;;;;;;;9.43;5.30;;;3.50;99.90;;;;;;5011576;28;20026;-72
2023/03/08 05:05:32;;;;;;;9.23;5.05;;;3.50;99.90;;;;;;5027754;28;20121;-72
2023/03/08 05:08:02;;;;;;;13.10;5.20;;;3.50;99.90;;;;;;5027109;28;20056;-71
2023/03/08 05:10:27;;;;;;;9.68;4.88;;;3.50;99.90;;;;;;5011506;28;20041;-71
2023/03/08 05:12:53;;;;;;;10.48;4.80;;;3.60;99.90;;;;;;5011505;28;20364;-72
2023/03/08 05:15:22;;;;;;;11.48;5.38;;;3.70;99.90;;;;;;5026737;28;20104;-73
2023/03/08 05:17:48;;;;;;;9.82;4.65;;;3.70;99.90;;;;;;5011787;28;20029;-72
2023/03/08 05:20:14;;;;;;;8.35;4.65;;;3.70;99.90;;;;;;5010339;28;20034;-71
2023/03/08 05:22:40;;;;;;;12.27;5.60;;;3.70;99.70;;;;;;5026890;28;20048;-73
2023/03/08 05:25:05;;;;;;;8.48;4.80;;;3.70;99.80;;;;;;5026726;28;20368;-72
2023/03/08 05:27:32;;;;;;;8.57;4.82;;;3.70;99.80;;;;;;5011115;28;20026;-73
2023/03/08 05:29:58;;;;;;;11.55;4.63;;;3.90;99.60;;;;;;5011211;28;20486;-73
2023/03/08 05:32:24;;;;;;;9.68;5.10;;;3.80;99.70;;;;;;5026935;28;20025;-72
2023/03/08 05:34:51;;;;;;;13.40;5.22;;;3.80;99.60;;;;;;5011187;28;20379;-72
2023/03/08 05:37:17;;;;;;;7.80;5.03;;;3.90;99.60;;;;;;5011201;28;20041;-71
2023/03/08 05:39:43;;;;;;;7.63;4.70;;;3.90;99.40;;;;;;5026449;28;20033;-72
2023/03/08 05:42:10;;;;;;;8.07;4.03;;;4.00;99.40;;;;;;5011163;28;20026;-72
2023/03/08 05:44:36;;;;;;;9.15;5.18;;;3.80;99.40;;;;;;5011491;28;20014;-71
2023/03/08 05:47:02;;;;;;;12.00;5.75;;;3.80;99.50;;;;;;5026398;28;20377;-72
2023/03/08 05:49:28;;;;;;;12.65;5.45;;;3.80;99.60;;;;;;5010881;28;20029;-72
2023/03/08 05:51:54;;;;;;;7.97;4.65;;;3.80;99.50;;;;;;5010326;28;20459;-72
2023/03/08 05:54:20;;;;;;;10.82;4.35;;;3.70;99.40;;;;;;5010953;28;20115;-71
2023/03/08 05:56:46;;;;;;;10.18;5.05;;;3.80;99.50;;;;;;5011431;28;20034;-72
2023/03/08 05:59:11;;;;;;;12.30;5.15;;;3.80;99.50;;;;;;5026162;28;20097;-72
2023/03/08 06:01:37;;;;;;;9.55;5.65;;;3.80;99.50;;;;;;5026082;28;20045;-73
2023/03/08 06:04:03;;;;;;;9.73;5.00;;;3.70;99.60;;;;;;5011101;28;20041;-73
2023/03/08 06:06:28;;;;;;;7.75;4.45;;;3.60;99.70;;;;;;5010960;28;20092;-72
2023/03/08 06:08:55;;;;;;;9.68;4.45;;;3.60;99.80;;;;;;5026107;28;20053;-72
2023/03/08 06:11:21;;;;;;;8.25;4.40;;;3.60;99.70;;;;;;5011155;28;20033;-72
2023/03/08 06:13:47;;;;;;;8.60;4.50;;;3.60;99.50;;;;;;5010745;28;20372;-71
2023/03/08 06:16:13;;;;;;;9.65;4.57;;;3.70;99.60;;;;;;5010823;28;20030;-71
2023/03/08 06:18:40;;;;;;;10.63;5.45;;;3.60;99.60;;;;;;5010692;28;20030;-73
2023/03/08 06:21:11;;;;;;;9.30;5.10;;;3.60;99.60;;;;;;5011088;28;20054;-72
2023/03/08 06:23:38;;;;;;;10.00;4.75;;;3.60;99.60;;;;;;5011328;28;20088;-71
2023/03/08 06:26:06;;;;;;;11.30;4.80;;;3.60;99.80;;;;;;5026247;28;20038;-73
2023/03/08 06:28:32;;;;;;;10.50;5.22;;;3.60;99.70;;;;;;5010412;28;20307;-71
2023/03/08 06:30:58;;;;;;;11.02;4.63;;;3.60;99.50;;;;;;5010595;28;20030;-71
2023/03/08 06:33:27;;;;;;;9.15;4.65;;;3.60;99.60;;;;;;5010445;28;20410;-73
2023/03/08 06:36:08;;;;;;;8.10;4.85;;;3.60;99.60;;;;;;5025892;28;20473;-71
2023/03/08 06:38:36;;;;;;;8.68;4.82;;;3.70;99.50;;;;;;5009748;28;20336;-73
2023/03/08 06:41:03;;;;;;;10.18;5.43;;;3.80;99.60;;;;;;5010523;28;20030;-73
2023/03/08 06:43:28;;;;;;;8.05;4.82;;;3.80;99.40;;;;;;5010595;28;20317;-73
2023/03/08 06:45:55;;;;;;;10.88;5.13;;;3.70;99.40;;;;;;5010429;28;20042;-73
2023/03/08 06:48:21;;;;;;;10.52;5.20;;;3.80;99.50;;;;;;5010593;28;20376;-75
2023/03/08 06:50:47;;;;;;;8.82;5.00;;;3.80;99.50;;;;;;5011194;28;20117;-71
2023/03/08 06:53:13;;;;;;;9.57;4.90;;;4.00;99.60;;;;;;5010446;28;20033;-71
2023/03/08 06:55:40;;;;;;;12.48;5.40;;;3.90;99.30;;;;;;5010558;28;20026;-72
2023/03/08 06:58:06;;;;;;;9.02;4.75;;;4.00;99.20;;;;;;5010134;28;20037;-71
2023/03/08 07:00:32;;;;;;;14.35;7.13;;;4.00;99.30;;;;;;5010113;28;20122;-72
2023/03/08 07:02:58;;;;;;;14.05;6.60;;;4.00;99.10;;;;;;5012743;28;20086;-71
2023/03/08 07:05:24;;;;;;;12.68;6.35;;;4.10;99.10;;;;;;5014386;28;20102;-70
2023/03/08 07:07:50;;;;;;;16.45;7.80;;;4.10;99.00;;;;;;5012830;28;20100;-72
2023/03/08 07:10:18;;;;;;;12.13;6.28;;;4.10;99.00;;;;;;5013918;28;20046;-72
2023/03/08 07:12:47;;;;;;;14.55;7.93;;;4.20;98.90;;;;;;5012693;28;20042;-71
2023/03/08 07:15:14;;;;;;;12.52;5.57;;;4.20;98.90;;;;;;5013669;28;20417;-71
2023/03/08 07:17:41;;;;;;;12.43;5.85;;;4.10;98.80;;;;;;5014220;28;20056;-72
2023/03/08 07:20:09;;;;;;;15.05;5.70;;;4.10;99.00;;;;;;5013645;28;20030;-71
2023/03/08 07:22:35;;;;;;;14.20;6.00;;;4.10;98.70;;;;;;5012591;28;20095;-72
2023/03/08 07:25:01;;;;;;;8.63;4.78;;;4.20;98.50;;;;;;5012573;28;20364;-73
2023/03/08 07:27:26;;;;;;;8.60;5.10;;;4.20;98.50;;;;;;5013172;28;20050;-71
2023/03/08 07:29:52;;;;;;;11.88;5.90;;;4.20;98.40;;;;;;5013303;28;20038;-70
2023/03/08 07:32:18;;;;;;;10.45;5.43;;;4.30;98.50;;;;;;5013752;28;20037;-72
2023/03/08 07:34:44;;;;;;;10.30;6.00;;;4.30;98.40;;;;;;5012372;28;20124;-72
2023/03/08 07:37:14;;;;;;;13.68;6.00;;;4.40;98.40;;;;;;5013150;28;20060;-71
2023/03/08 07:39:40;;;;;;;11.52;5.47;;;4.40;98.10;;;;;;5014127;28;20038;-72
2023/03/08 07:42:06;;;;;;;14.73;6.40;;;4.40;98.30;;;;;;5014366;28;20026;-72
2023/03/08 07:44:32;;;;;;;11.82;5.63;;;4.60;98.20;;;;;;5015187;28;20345;-72
2023/03/08 07:46:57;;;;;;;16.65;6.32;;;4.70;98.20;;;;;;5013595;28;20041;-72
2023/03/08 07:49:23;;;;;;;10.50;6.60;;;4.70;98.00;;;;;;5014086;28;20030;-72
2023/03/08 07:51:52;;;;;;;13.93;6.00;;;4.70;98.00;;;;;;5012648;28;20111;-71
2023/03/08 07:54:18;;;;;;;15.73;6.53;;;4.70;97.90;;;;;;5011878;28;20022;-71
2023/03/08 07:56:43;;;;;;;10.02;6.32;;;4.80;98.00;;;;;;5013230;28;20022;-71
2023/03/08 07:59:09;;;;;;;18.13;6.90;;;4.80;97.60;;;;;;5012706;28;20026;-72
2023/03/08 08:01:35;;;;;;;12.90;7.30;;;4.90;97.70;;;;;;5012765;28;20072;-71
2023/03/08 08:04:01;;;;;;;15.05;7.90;;;4.80;97.50;;;;;;5012360;28;20491;-70
2023/03/08 08:06:27;;;;;;;17.48;8.32;;;4.80;97.50;;;;;;5011383;28;20025;-71
2023/03/08 08:08:54;;;;;;;15.60;8.15;;;4.80;97.50;;;;;;5012372;28;20048;-71
2023/03/08 08:11:21;;;;;;;16.83;8.95;;;4.80;97.40;;;;;;5012134;28;20088;-70
2023/03/08 08:13:47;;;;;;;15.63;8.15;;;4.90;97.40;;;;;;5011568;28;20045;-70
2023/03/08 08:16:16;;;;;;;20.33;8.50;;;5.00;97.40;;;;;;5012290;28;20026;-70
2023/03/08 08:18:41;;;;;;;17.75;9.82;;;4.90;97.30;;;;;;5012384;28;20463;-71
2023/03/08 08:21:12;;;;;;;21.67;10.60;;;4.90;97.40;;;;;;5011170;28;20022;-72
2023/03/08 08:23:39;;;;;;;18.35;8.65;;;5.00;97.40;;;;;;5012768;28;20022;-71
2023/03/08 08:26:07;;;;;;;16.95;9.27;;;5.10;97.50;;;;;;5012390;28;20042;-72
2023/03/08 08:28:33;;;;;;;15.27;8.52;;;5.10;97.40;;;;;;5011892;28;20509;-71
2023/03/08 08:31:04;;;;;;;20.77;8.93;;;5.10;97.40;;;;;;5012212;28;20037;-71
2023/03/08 08:33:30;;;;;;;23.85;12.13;;;5.20;97.40;;;;;;5010666;28;20056;-70
2023/03/08 08:35:56;;;;;;;20.15;9.60;;;5.20;97.20;;;;;;5011135;28;20351;-69
2023/03/08 08:38:23;;;;;;;19.90;10.02;;;5.20;97.20;;;;;;5012766;28;20068;-70
2023/03/08 08:40:49;;;;;;;15.00;8.65;;;5.10;97.10;;;;;;5012139;28;20038;-70
2023/03/08 08:43:15;;;;;;;17.42;8.65;;;5.10;97.00;;;;;;5011681;28;20112;-71
2023/03/08 08:45:45;;;;;;;20.80;9.30;;;5.00;97.10;;;;;;5011909;28;20121;-71
2023/03/08 08:48:11;;;;;;;16.23;8.98;;;5.10;97.20;;;;;;5011669;28;20026;-70
2023/03/08 08:50:41;;;;;;;14.88;8.10;;;5.00;96.90;;;;;;5012179;28;20416;-71
2023/03/08 08:53:09;;;;;;;17.65;9.18;;;5.00;97.20;;;;;;5011509;28;20460;-71
2023/03/08 08:55:35;;;;;;;16.33;9.05;;;4.90;97.10;;;;;;5011675;28;20141;-70
2023/03/08 08:58:02;;;;;;;15.00;9.00;;;5.00;97.20;;;;;;5011527;28;20029;-71
2023/03/08 09:00:28;;;;;;;18.98;9.63;;;4.90;96.90;;;;;;5011616;28;20121;-71
2023/03/08 09:02:54;;;;;;;19.90;9.38;;;4.90;97.10;;;;;;5011491;28;20030;-71
2023/03/08 09:05:19;;;;;;;17.55;10.05;;;4.90;97.10;;;;;;5012249;28;20044;-72
2023/03/08 09:07:45;;;;;;;24.25;11.35;;;4.90;97.00;;;;;;5010328;28;20053;-71
2023/03/08 09:10:11;;;;;;;20.27;10.18;;;4.90;97.30;;;;;;5011221;28;20030;-71
2023/03/08 09:12:37;;;;;;;23.80;12.48;;;5.10;97.20;;;;;;5009950;28;20077;-71
2023/03/08 09:15:05;;;;;;;25.98;11.20;;;5.00;97.00;;;;;;5011162;28;20176;-71
2023/03/08 09:17:32;;;;;;;20.60;9.73;;;5.10;97.10;;;;;;5011723;28;20127;-71
2023/03/08 09:19:58;;;;;;;18.97;9.77;;;5.20;97.20;;;;;;5011533;28;20030;-72
2023/03/08 09:22:25;;;;;;;22.15;9.75;;;5.20;96.80;;;;;;5011218;28;20663;-70
2023/03/08 09:24:50;;;;;;;16.83;9.10;;;5.30;96.90;;;;;;5010508;28;20030;-71
2023/03/08 09:27:16;;;;;;;21.77;10.27;;;5.30;96.60;;;;;;5009800;28;20428;-72
2023/03/08 09:29:42;;;;;;;22.85;10.98;;;5.30;96.40;;;;;;5011065;28;20038;-70
2023/03/08 09:32:08;;;;;;;20.52;9.68;;;5.40;96.40;;;;;;5010869;28;20042;-71
2023/03/08 09:34:33;;;;;;;18.02;9.32;;;5.40;96.40;;;;;;5010950;28;20427;-71
2023/03/08 09:36:59;;;;;;;27.27;11.35;;;5.40;96.30;;;;;;5010837;28;20030;-71
2023/03/08 09:39:26;;;;;;;27.17;11.20;;;5.40;96.60;;;;;;5009747;28;20037;-71
2023/03/08 09:42:01;;;;;;;25.27;10.68;;;5.50;96.60;;;;;;5010733;28;20507;-71
2023/03/08 09:45:00;;;;;;;23.90;12.02;;;5.60;96.30;;;;;;5011175;28;20029;-71
2023/03/08 09:47:51;;;;;;;21.38;10.50;;;5.60;96.40;;;;;;5009893;28;20033;-71
2023/03/08 09:50:44;;;;;;;19.40;10.85;;;5.60;96.30;;;;;;5009680;28;20045;-72
2023/03/08 09:53:19;;;;;;;18.42;10.45;;;5.60;96.10;;;;;;5010606;28;20115;-71
2023/03/08 09:56:10;;;;;;;20.67;10.40;;;5.60;96.20;;;;;;5010699;28;20092;-71
2023/03/08 09:59:01;;;;;;;22.75;10.35;;;5.60;95.80;;;;;;5010134;28;20053;-71
2023/03/08 10:01:41;;;;;;;25.75;11.50;;;5.70;96.00;;;;;;5010299;28;20049;-70
2023/03/08 10:04:32;;;;;;;22.88;10.85;;;5.60;95.80;;;;;;5009508;28;20026;-72
2023/03/08 10:07:10;;;;;;;20.38;10.40;;;5.50;96.00;;;;;;5010738;28;20034;-71
2023/03/08 10:09:42;;;;;;;21.23;11.00;;;5.70;96.20;;;;;;5010763;28;20030;-72
2023/03/08 10:12:28;;;;;;;20.13;10.02;;;5.60;95.90;;;;;;5010578;28;20104;-72
2023/03/08 10:15:07;;;;;;;18.88;11.02;;;5.60;96.00;;;;;;5010155;28;20423;-71
2023/03/08 10:17:57;;;;;;;23.70;9.93;;;5.70;96.00;;;;;;5010900;28;20052;-70
2023/03/08 10:20:26;;;;;;;26.92;11.38;;;5.70;96.10;;;;;;5010506;28;20038;-72
2023/03/08 10:23:01;;;;;;;21.40;11.20;;;5.70;96.10;;;;;;5010367;28;20034;-71
2023/03/08 10:25:30;;;;;;;19.80;10.25;;;5.90;96.10;;;;;;5010270;28;20034;-72
2023/03/08 10:27:58;;;;;;;23.90;10.07;;;5.90;95.80;;;;;;5009358;28;20476;-72
2023/03/08 10:30:30;;;;;;;18.00;9.77;;;6.00;95.60;;;;;;5009168;28;20042;-71
2023/03/08 10:32:58;;;;;;;18.05;9.40;;;5.90;95.30;;;;;;5010458;28;20088;-72
2023/03/08 10:35:51;;;;;;;17.15;9.93;;;5.90;95.50;;;;;;5012107;28;20322;-71
2023/03/08 10:38:17;;;;;;;17.50;9.20;;;6.00;95.30;;;;;;5015279;28;20342;-71
2023/03/08 10:40:43;;;;;;;17.48;9.15;;;6.00;95.30;;;;;;5013874;28;20037;-71
2023/03/08 10:43:31;;;;;;;22.10;10.57;;;5.90;95.10;;;;;;5014909;28;20045;-73
2023/03/08 10:46:03;;;;;;;16.92;9.13;;;6.00;95.20;;;;;;5015024;28;20375;-72
2023/03/08 10:48:29;;;;;;;21.30;10.38;;;6.00;95.20;;;;;;5015581;28;20460;-71
2023/03/08 10:50:59;;;;;;;18.98;9.30;;;6.10;95.10;;;;;;5016046;28;20522;-72
2023/03/08 10:53:28;;;;;;;17.40;8.75;;;6.10;94.90;;;;;;5016029;28;20180;-73
2023/03/08 10:55:55;;;;;;;19.13;9.45;;;6.10;94.90;;;;;;5014455;28;20026;-73
2023/03/08 10:58:32;;;;;;;21.27;9.97;;;6.10;94.90;;;;;;5015227;28;20057;-73
2023/03/08 11:01:06;;;;;;;22.10;10.43;;;6.20;94.90;;;;;;5014606;28;20052;-72
2023/03/08 11:03:33;;;;;;;24.85;10.38;;;6.10;94.90;;;;;;5014802;28;20478;-71
2023/03/08 11:06:02;;;;;;;22.27;10.30;;;6.30;95.00;;;;;;5015512;28;20018;-70
2023/03/08 11:08:37;;;;;;;21.13;9.45;;;6.30;94.70;;;;;;5014648;28;20452;-73
2023/03/08 11:11:12;;;;;;;19.48;9.25;;;6.40;94.60;;;;;;5014563;28;20121;-71
2023/03/08 11:13:50;;;;;;;17.63;9.25;;;6.40;94.60;;;;;;5012062;28;20050;-71
2023/03/08 11:16:19;;;;;;;15.02;8.07;;;6.40;94.70;;;;;;5013275;28;20045;-71
2023/03/08 11:18:53;;;;;;;23.92;9.02;;;6.40;94.30;;;;;;5013210;28;20033;-73
2023/03/08 11:21:35;;;;;;;27.40;9.68;;;6.50;94.20;;;;;;5013102;28;20396;-72
2023/03/08 11:24:24;;;;;;;20.17;10.00;;;6.60;94.50;;;;;;5013012;28;20471;-73
2023/03/08 11:26:54;;;;;;;21.70;9.32;;;6.80;94.60;;;;;;5012350;28;20057;-72
2023/03/08 11:29:49;;;;;;;25.23;9.88;;;6.70;94.10;;;;;;5012399;28;20052;-71
2023/03/08 11:32:28;;;;;;;17.40;9.40;;;6.70;94.10;;;;;;5012358;28;20038;-72
2023/03/08 11:34:59;;;;;;;19.65;8.70;;;6.70;94.40;;;;;;5013456;28;20368;-73
2023/03/08 11:37:45;;;;;;;23.73;9.13;;;6.70;94.20;;;;;;5012189;28;20030;-71
2023/03/08 11:40:39;;;;;;;22.98;9.23;;;6.70;94.40;;;;;;5013497;28;20487;-72
2023/03/08 11:43:10;;;;;;;20.05;9.50;;;6.60;94.40;;;;;;5013677;28;20412;-73
2023/03/08 11:45:54;;;;;;;17.90;9.38;;;6.70;94.50;;;;;;5013946;28;20041;-72
2023/03/08 11:48:31;;;;;;;17.25;8.75;;;6.70;94.30;;;;;;5012577;28;20049;-73
2023/03/08 11:51:08;;;;;;;16.08;8.95;;;6.60;94.30;;;;;;5013397;28;20355;-73
2023/03/08 11:53:49;;;;;;;20.60;10.17;;;6.60;94.40;;;;;;5014045;28;20298;-72
2023/03/08 11:56:39;;;;;;;17.80;9.32;;;6.70;94.60;;;;;;5013493;28;20137;-73
2023/03/08 11:59:34;;;;;;;17.35;8.77;;;6.70;94.80;;;;;;5014008;28;20034;-74
2023/03/08 12:02:14;;;;;;;14.60;8.10;;;6.70;94.80;;;;;;5013867;28;20436;-72
2023/03/08 12:05:00;;;;;;;15.77;7.22;;;6.80;94.80;;;;;;5012474;28;20073;-73
2023/03/08 12:07:29;;;;;;;12.60;6.43;;;6.80;94.20;;;;;;5013597;28;20060;-72
2023/03/08 12:10:18;;;;;;;15.45;7.18;;;6.80;93.80;;;;;;5013300;28;20842;-73
2023/03/08 12:12:51;;;;;;;19.17;9.88;;;6.60;94.40;;;;;;5013976;28;20076;-73
2023/03/08 12:15:22;;;;;;;16.48;8.77;;;6.50;95.40;;;;;;5013095;28;20037;-73
2023/03/08 12:17:55;;;;;;;15.35;7.80;;;6.50;95.60;;;;;;5013454;28;20034;-72
2023/03/08 12:20:22;;;;;;;15.85;6.97;;;6.50;94.90;;;;;;5012782;28;20065;-72
2023/03/08 12:23:17;;;;;;;11.80;6.38;;;6.50;95.10;;;;;;5012818;28;20387;-73
2023/03/08 12:25:46;;;;;;;11.52;5.22;;;6.40;95.00;;;;;;5011764;28;20030;-72
2023/03/08 12:28:23;;;;;;;8.45;5.03;;;6.20;95.00;;;;;;5012698;28;20425;-75
2023/03/08 12:31:18;;;;;;;21.92;9.23;;;6.20;95.20;;;;;;5012470;28;20121;-72
2023/03/08 12:33:46;;;;;;;9.85;5.60;;;6.20;95.50;;;;;;5012697;28;20388;-72
2023/03/08 12:36:12;;;;;;;8.88;4.82;;;6.20;95.60;;;;;;5011200;28;20030;-73
2023/03/08 12:38:44;;;;;;;7.68;4.70;;;6.30;95.50;;;;;;5013301;28;20392;-74
2023/03/08 12:41:30;;;;;;;7.60;3.72;;;6.30;95.00;;;;;;5011107;28;20050;-73
2023/03/08 12:44:04;;;;;;;14.32;7.43;;;6.30;94.90;;;;;;5012118;28;20073;-73
2023/03/08 12:46:55;;;;;;;14.38;7.82;;;6.20;95.50;;;;;;5010908;28;20058;-73
2023/03/08 12:49:34;;;;;;;11.98;6.22;;;6.30;95.90;;;;;;5011864;28;20045;-73
2023/03/08 12:52:04;;;;;;;10.90;6.30;;;6.30;96.20;;;;;;5012234;28;20152;-72
2023/03/08 12:54:33;;;;;;;10.18;5.40;;;6.30;96.60;;;;;;5010475;28;20034;-73
2023/03/08 12:57:01;;;;;;;11.85;6.50;;;6.30;96.80;;;;;;5012179;28;20049;-73
2023/03/08 12:59:38;;;;;;;15.30;6.07;;;6.20;96.90;;;;;;5012351;28;20101;-73
2023/03/08 13:02:21;;;;;;;6.93;4.07;;;6.10;97.30;;;;;;5012194;28;20344;-72